sensor_id;sensor_type;location;lat;lon;timestamp;temperature;humidity
14475;DHT22;7323;50.848;4.334;2023-03-01T00:01:22;2.50;1.00
14475;DHT22;7323;50.848;4.334;2023-03-01T00:03:49;2.60;1.00
14475;DHT22;7323;50.848;4.334;2023-03-01T00:06:25;2.60;1.00
14475;DHT22;7323;50.848;4.334;2023-03-01T00:08:54;2.60;1.00
14475;DHT22;7323;50.848;4.334;2023-03-01T00:11:26;2.60;1.00
14475;DHT22;7323;50.848;4.334;2023-03-01T00:13:57;2.60;1.00
14475;DHT22;7323;50.848;4.334;2023-03-01T00:16:27;2.70;1.00
14475;DHT22;7323;50.848;4.334;2023-03-01T00:18:59;2.70;1.00
14475;DHT22;7323;50.848;4.334;2023-03-01T00:21:28;2.60;29.20
14475;DHT22;7323;50.848;4.334;2023-03-01T00:23:54;2.50;8.10
14475;DHT22;7323;50.848;4.334;2023-03-01T00:26:22;2.60;71.40
14475;DHT22;7323;50.848;4.334;2023-03-01T00:28:51;2.70;42.40
14475;DHT22;7323;50.848;4.334;2023-03-01T00:31:23;2.80;1.00
14475;DHT22;7323;50.848;4.334;2023-03-01T00:33:55;2.60;29.80
14475;DHT22;7323;50.848;4.334;2023-03-01T00:36:37;2.60;74.40
14475;DHT22;7323;50.848;4.334;2023-03-01T00:39:07;2.50;53.10
14475;DHT22;7323;50.848;4.334;2023-03-01T00:41:51;2.70;58.50
14475;DHT22;7323;50.848;4.334;2023-03-01T00:44:22;2.40;22.30
14475;DHT22;7323;50.848;4.334;2023-03-01T00:46:47;2.40;99.90
14475;DHT22;7323;50.848;4.334;2023-03-01T00:49:19;2.30;99.90
14475;DHT22;7323;50.848;4.334;2023-03-01T00:51:45;2.30;99.90
14475;DHT22;7323;50.848;4.334;2023-03-01T00:54:11;2.30;99.90
14475;DHT22;7323;50.848;4.334;2023-03-01T00:56:36;2.40;99.90
14475;DHT22;7323;50.848;4.334;2023-03-01T00:59:02;2.20;99.90
14475;DHT22;7323;50.848;4.334;2023-03-01T01:01:29;2.20;99.90
14475;DHT22;7323;50.848;4.334;2023-03-01T01:04:02;2.20;99.90
14475;DHT22;7323;50.848;4.334;2023-03-01T01:06:38;2.20;99.90
14475;DHT22;7323;50.848;4.334;2023-03-01T01:09:06;2.10;99.90
14475;DHT22;7323;50.848;4.334;2023-03-01T01:11:38;2.20;99.90
14475;DHT22;7323;50.848;4.334;2023-03-01T01:14:09;2.00;99.90
14475;DHT22;7323;50.848;4.334;2023-03-01T01:16:36;2.10;99.90
14475;DHT22;7323;50.848;4.334;2023-03-01T01:19:04;2.00;99.90
14475;DHT22;7323;50.848;4.334;2023-03-01T01:21:30;2.10;99.90
14475;DHT22;7323;50.848;4.334;2023-03-01T01:23:56;2.10;99.90
14475;DHT22;7323;50.848;4.334;2023-03-01T01:26:25;2.00;99.90
14475;DHT22;7323;50.848;4.334;2023-03-01T01:28:51;2.10;99.90
14475;DHT22;7323;50.848;4.334;2023-03-01T01:31:23;2.10;99.90
14475;DHT22;7323;50.848;4.334;2023-03-01T01:33:52;2.00;99.90
14475;DHT22;7323;50.848;4.334;2023-03-01T01:36:17;2.00;99.90
14475;DHT22;7323;50.848;4.334;2023-03-01T01:38:43;2.00;99.90
14475;DHT22;7323;50.848;4.334;2023-03-01T01:41:18;2.00;99.90
14475;DHT22;7323;50.848;4.334;2023-03-01T01:43:47;2.10;99.90
14475;DHT22;7323;50.848;4.334;2023-03-01T01:46:31;2.00;99.90
14475;DHT22;7323;50.848;4.334;2023-03-01T01:49:03;2.00;99.90
14475;DHT22;7323;50.848;4.334;2023-03-01T01:51:42;1.90;99.90
14475;DHT22;7323;50.848;4.334;2023-03-01T01:54:14;2.00;99.90
14475;DHT22;7323;50.848;4.334;2023-03-01T01:56:46;2.00;99.90
14475;DHT22;7323;50.848;4.334;2023-03-01T01:59:14;2.10;99.90
14475;DHT22;7323;50.848;4.334;2023-03-01T02:01:43;2.00;99.90
14475;DHT22;7323;50.848;4.334;2023-03-01T02:04:10;1.90;99.90
14475;DHT22;7323;50.848;4.334;2023-03-01T02:06:49;2.00;99.90
14475;DHT22;7323;50.848;4.334;2023-03-01T02:09:23;1.90;99.90
14475;DHT22;7323;50.848;4.334;2023-03-01T02:11:53;1.90;99.90
14475;DHT22;7323;50.848;4.334;2023-03-01T02:14:19;1.90;1.00
14475;DHT22;7323;50.848;4.334;2023-03-01T02:16:45;2.00;99.90
14475;DHT22;7323;50.848;4.334;2023-03-01T02:22:22;1.90;1.00
14475;DHT22;7323;50.848;4.334;2023-03-01T02:30:42;1.70;99.90
14475;DHT22;7323;50.848;4.334;2023-03-01T02:33:38;1.70;1.00
14475;DHT22;7323;50.848;4.334;2023-03-01T02:36:08;1.60;1.00
14475;DHT22;7323;50.848;4.334;2023-03-01T02:38:35;1.80;1.00
14475;DHT22;7323;50.848;4.334;2023-03-01T02:41:02;1.60;1.00
14475;DHT22;7323;50.848;4.334;2023-03-01T02:43:31;1.70;1.00
14475;DHT22;7323;50.848;4.334;2023-03-01T02:46:03;1.60;1.00
14475;DHT22;7323;50.848;4.334;2023-03-01T02:48:47;1.60;1.00
14475;DHT22;7323;50.848;4.334;2023-03-01T02:51:45;1.60;1.00
14475;DHT22;7323;50.848;4.334;2023-03-01T02:56:43;1.60;1.00
14475;DHT22;7323;50.848;4.334;2023-03-01T02:59:09;1.70;1.00
14475;DHT22;7323;50.848;4.334;2023-03-01T03:01:41;1.60;1.00
14475;DHT22;7323;50.848;4.334;2023-03-01T03:04:10;1.60;1.00
14475;DHT22;7323;50.848;4.334;2023-03-01T03:06:37;1.50;1.00
14475;DHT22;7323;50.848;4.334;2023-03-01T03:09:04;1.40;1.00
14475;DHT22;7323;50.848;4.334;2023-03-01T03:11:30;1.50;1.00
14475;DHT22;7323;50.848;4.334;2023-03-01T03:13:56;1.50;1.00
14475;DHT22;7323;50.848;4.334;2023-03-01T03:16:24;1.40;1.00
14475;DHT22;7323;50.848;4.334;2023-03-01T03:18:50;1.40;1.00
14475;DHT22;7323;50.848;4.334;2023-03-01T03:21:15;1.40;1.00
14475;DHT22;7323;50.848;4.334;2023-03-01T03:23:42;1.40;1.00
14475;DHT22;7323;50.848;4.334;2023-03-01T03:26:10;1.40;1.00
14475;DHT22;7323;50.848;4.334;2023-03-01T03:28:39;1.40;1.00
14475;DHT22;7323;50.848;4.334;2023-03-01T03:31:06;1.30;1.00
14475;DHT22;7323;50.848;4.334;2023-03-01T03:33:35;1.30;1.00
14475;DHT22;7323;50.848;4.334;2023-03-01T03:36:01;1.30;1.00
14475;DHT22;7323;50.848;4.334;2023-03-01T03:38:26;1.20;1.00
14475;DHT22;7323;50.848;4.334;2023-03-01T03:41:00;1.20;1.00
14475;DHT22;7323;50.848;4.334;2023-03-01T03:43:28;1.30;1.00
14475;DHT22;7323;50.848;4.334;2023-03-01T03:45:54;1.20;1.00
14475;DHT22;7323;50.848;4.334;2023-03-01T03:48:20;1.20;1.00
14475;DHT22;7323;50.848;4.334;2023-03-01T03:50:55;1.10;1.00
14475;DHT22;7323;50.848;4.334;2023-03-01T03:53:22;1.10;1.00
14475;DHT22;7323;50.848;4.334;2023-03-01T03:56:21;1.10;1.00
14475;DHT22;7323;50.848;4.334;2023-03-01T03:58:54;1.10;1.00
14475;DHT22;7323;50.848;4.334;2023-03-01T04:01:20;1.00;1.00
14475;DHT22;7323;50.848;4.334;2023-03-01T04:03:45;1.00;1.00
14475;DHT22;7323;50.848;4.334;2023-03-01T04:06:21;0.90;1.00
14475;DHT22;7323;50.848;4.334;2023-03-01T04:08:47;1.00;1.00
14475;DHT22;7323;50.848;4.334;2023-03-01T04:11:16;1.00;1.00
14475;DHT22;7323;50.848;4.334;2023-03-01T04:13:56;1.00;1.00
14475;DHT22;7323;50.848;4.334;2023-03-01T04:16:22;1.00;1.00
14475;DHT22;7323;50.848;4.334;2023-03-01T04:18:49;0.90;1.00
14475;DHT22;7323;50.848;4.334;2023-03-01T04:21:15;0.90;1.00
14475;DHT22;7323;50.848;4.334;2023-03-01T04:24:12;0.90;1.00
14475;DHT22;7323;50.848;4.334;2023-03-01T04:26:41;0.90;1.00
14475;DHT22;7323;50.848;4.334;2023-03-01T04:29:08;1.00;1.00
14475;DHT22;7323;50.848;4.334;2023-03-01T04:31:35;1.00;1.00
14475;DHT22;7323;50.848;4.334;2023-03-01T04:34:00;0.90;1.00
14475;DHT22;7323;50.848;4.334;2023-03-01T04:36:28;0.90;1.00
14475;DHT22;7323;50.848;4.334;2023-03-01T04:38:55;1.00;1.00
14475;DHT22;7323;50.848;4.334;2023-03-01T04:41:24;0.90;1.00
14475;DHT22;7323;50.848;4.334;2023-03-01T04:43:54;0.90;1.00
14475;DHT22;7323;50.848;4.334;2023-03-01T04:46:20;1.00;1.00
14475;DHT22;7323;50.848;4.334;2023-03-01T04:48:47;0.90;1.00
14475;DHT22;7323;50.848;4.334;2023-03-01T04:51:14;0.80;1.00
14475;DHT22;7323;50.848;4.334;2023-03-01T04:53:41;0.80;1.00
14475;DHT22;7323;50.848;4.334;2023-03-01T04:56:07;0.80;1.00
14475;DHT22;7323;50.848;4.334;2023-03-01T04:58:33;0.80;1.00
14475;DHT22;7323;50.848;4.334;2023-03-01T05:01:00;0.70;1.00
14475;DHT22;7323;50.848;4.334;2023-03-01T05:03:26;0.70;1.00
14475;DHT22;7323;50.848;4.334;2023-03-01T05:05:52;0.60;1.00
14475;DHT22;7323;50.848;4.334;2023-03-01T05:08:18;0.70;1.00
14475;DHT22;7323;50.848;4.334;2023-03-01T05:10:52;0.60;1.00
14475;DHT22;7323;50.848;4.334;2023-03-01T05:13:19;0.60;1.00
14475;DHT22;7323;50.848;4.334;2023-03-01T05:15:56;0.70;1.00
14475;DHT22;7323;50.848;4.334;2023-03-01T05:18:25;0.60;1.00
14475;DHT22;7323;50.848;4.334;2023-03-01T05:20:55;0.60;1.00
14475;DHT22;7323;50.848;4.334;2023-03-01T05:23:24;0.50;1.00
14475;DHT22;7323;50.848;4.334;2023-03-01T05:25:51;0.60;1.00
14475;DHT22;7323;50.848;4.334;2023-03-01T05:28:18;0.60;1.00
14475;DHT22;7323;50.848;4.334;2023-03-01T05:30:50;0.50;1.00
14475;DHT22;7323;50.848;4.334;2023-03-01T05:33:17;0.50;1.00
14475;DHT22;7323;50.848;4.334;2023-03-01T05:35:45;0.50;1.00
14475;DHT22;7323;50.848;4.334;2023-03-01T05:38:12;0.50;1.00
14475;DHT22;7323;50.848;4.334;2023-03-01T05:40:48;0.50;1.00
14475;DHT22;7323;50.848;4.334;2023-03-01T05:43:46;0.50;1.00
14475;DHT22;7323;50.848;4.334;2023-03-01T05:46:25;0.50;1.00
14475;DHT22;7323;50.848;4.334;2023-03-01T05:48:50;0.50;1.00
14475;DHT22;7323;50.848;4.334;2023-03-01T05:51:16;0.50;1.00
14475;DHT22;7323;50.848;4.334;2023-03-01T05:53:43;0.40;1.00
14475;DHT22;7323;50.848;4.334;2023-03-01T05:56:09;0.40;1.00
14475;DHT22;7323;50.848;4.334;2023-03-01T05:58:35;0.40;1.00
14475;DHT22;7323;50.848;4.334;2023-03-01T06:01:04;0.40;1.00
14475;DHT22;7323;50.848;4.334;2023-03-01T06:03:30;0.30;1.00
14475;DHT22;7323;50.848;4.334;2023-03-01T06:05:56;0.30;1.00
14475;DHT22;7323;50.848;4.334;2023-03-01T06:08:22;0.30;1.00
14475;DHT22;7323;50.848;4.334;2023-03-01T06:10:49;0.30;1.00
14475;DHT22;7323;50.848;4.334;2023-03-01T06:13:15;0.30;1.00
14475;DHT22;7323;50.848;4.334;2023-03-01T06:15:40;0.30;1.00
14475;DHT22;7323;50.848;4.334;2023-03-01T06:18:09;0.20;1.00
14475;DHT22;7323;50.848;4.334;2023-03-01T06:20:38;0.30;1.00
14475;DHT22;7323;50.848;4.334;2023-03-01T06:23:04;0.30;1.00
14475;DHT22;7323;50.848;4.334;2023-03-01T06:25:29;0.20;1.00
14475;DHT22;7323;50.848;4.334;2023-03-01T06:27:55;0.20;1.00
14475;DHT22;7323;50.848;4.334;2023-03-01T06:30:26;0.20;1.00
14475;DHT22;7323;50.848;4.334;2023-03-01T06:32:52;0.10;1.00
14475;DHT22;7323;50.848;4.334;2023-03-01T06:35:18;0.10;1.00
14475;DHT22;7323;50.848;4.334;2023-03-01T06:37:46;0.10;1.00
14475;DHT22;7323;50.848;4.334;2023-03-01T06:40:12;0.10;1.00
14475;DHT22;7323;50.848;4.334;2023-03-01T06:42:43;0.10;1.00
14475;DHT22;7323;50.848;4.334;2023-03-01T06:45:22;0.00;1.00
14475;DHT22;7323;50.848;4.334;2023-03-01T06:47:48;0.10;1.00
14475;DHT22;7323;50.848;4.334;2023-03-01T06:50:19;0.10;1.00
14475;DHT22;7323;50.848;4.334;2023-03-01T06:52:45;0.10;1.00
14475;DHT22;7323;50.848;4.334;2023-03-01T06:55:13;0.00;1.00
14475;DHT22;7323;50.848;4.334;2023-03-01T06:57:40;0.10;1.00
14475;DHT22;7323;50.848;4.334;2023-03-01T07:00:18;0.10;1.00
14475;DHT22;7323;50.848;4.334;2023-03-01T07:02:59;0.20;1.00
14475;DHT22;7323;50.848;4.334;2023-03-01T07:05:37;0.10;1.00
14475;DHT22;7323;50.848;4.334;2023-03-01T07:08:03;0.20;1.00
14475;DHT22;7323;50.848;4.334;2023-03-01T07:10:29;0.20;1.00
14475;DHT22;7323;50.848;4.334;2023-03-01T07:12:56;0.30;1.00
14475;DHT22;7323;50.848;4.334;2023-03-01T07:15:22;0.20;1.00
14475;DHT22;7323;50.848;4.334;2023-03-01T07:17:49;0.10;1.00
14475;DHT22;7323;50.848;4.334;2023-03-01T07:20:17;0.10;1.00
14475;DHT22;7323;50.848;4.334;2023-03-01T07:22:46;0.10;1.00
14475;DHT22;7323;50.848;4.334;2023-03-01T07:25:14;0.20;1.00
14475;DHT22;7323;50.848;4.334;2023-03-01T07:27:49;0.10;1.00
14475;DHT22;7323;50.848;4.334;2023-03-01T07:30:15;0.20;1.00
14475;DHT22;7323;50.848;4.334;2023-03-01T07:32:43;0.20;1.00
14475;DHT22;7323;50.848;4.334;2023-03-01T07:35:11;0.20;1.00
14475;DHT22;7323;50.848;4.334;2023-03-01T07:37:37;0.30;1.00
14475;DHT22;7323;50.848;4.334;2023-03-01T07:40:06;0.30;1.00
14475;DHT22;7323;50.848;4.334;2023-03-01T07:42:32;0.10;1.00
14475;DHT22;7323;50.848;4.334;2023-03-01T07:44:59;0.40;1.00
14475;DHT22;7323;50.848;4.334;2023-03-01T07:47:25;0.40;1.00
14475;DHT22;7323;50.848;4.334;2023-03-01T07:49:51;0.50;1.00
14475;DHT22;7323;50.848;4.334;2023-03-01T07:52:18;0.50;1.00
14475;DHT22;7323;50.848;4.334;2023-03-01T07:54:44;0.50;1.00
14475;DHT22;7323;50.848;4.334;2023-03-01T07:57:13;0.50;1.00
14475;DHT22;7323;50.848;4.334;2023-03-01T07:59:41;0.40;1.00
14475;DHT22;7323;50.848;4.334;2023-03-01T08:02:20;0.60;1.00
14475;DHT22;7323;50.848;4.334;2023-03-01T08:08:11;0.70;1.00
14475;DHT22;7323;50.848;4.334;2023-03-01T08:10:37;0.80;1.00
14475;DHT22;7323;50.848;4.334;2023-03-01T08:13:05;0.90;1.00
14475;DHT22;7323;50.848;4.334;2023-03-01T08:15:31;0.90;1.00
14475;DHT22;7323;50.848;4.334;2023-03-01T08:17:57;1.00;1.00
14475;DHT22;7323;50.848;4.334;2023-03-01T08:20:23;1.00;1.00
14475;DHT22;7323;50.848;4.334;2023-03-01T08:22:49;1.10;1.00
14475;DHT22;7323;50.848;4.334;2023-03-01T08:25:14;1.20;1.00
14475;DHT22;7323;50.848;4.334;2023-03-01T08:27:40;1.20;1.00
14475;DHT22;7323;50.848;4.334;2023-03-01T08:30:06;1.30;1.00
14475;DHT22;7323;50.848;4.334;2023-03-01T08:32:38;1.50;1.00
14475;DHT22;7323;50.848;4.334;2023-03-01T08:35:06;1.60;1.00
14475;DHT22;7323;50.848;4.334;2023-03-01T08:37:32;1.70;1.00
14475;DHT22;7323;50.848;4.334;2023-03-01T08:39:59;1.70;1.00
14475;DHT22;7323;50.848;4.334;2023-03-01T08:42:27;1.80;1.00
14475;DHT22;7323;50.848;4.334;2023-03-01T08:44:54;1.90;1.00
14475;DHT22;7323;50.848;4.334;2023-03-01T08:47:20;2.10;1.00
14475;DHT22;7323;50.848;4.334;2023-03-01T08:49:45;2.10;1.00
14475;DHT22;7323;50.848;4.334;2023-03-01T08:52:19;2.30;1.00
14475;DHT22;7323;50.848;4.334;2023-03-01T08:54:46;2.20;1.00
14475;DHT22;7323;50.848;4.334;2023-03-01T08:57:13;2.20;1.00
14475;DHT22;7323;50.848;4.334;2023-03-01T08:59:41;2.20;1.00
14475;DHT22;7323;50.848;4.334;2023-03-01T09:02:12;2.30;1.00
14475;DHT22;7323;50.848;4.334;2023-03-01T09:04:38;2.60;99.90
14475;DHT22;7323;50.848;4.334;2023-03-01T09:07:04;2.40;99.90
14475;DHT22;7323;50.848;4.334;2023-03-01T09:09:31;2.50;99.90
14475;DHT22;7323;50.848;4.334;2023-03-01T09:12:00;2.80;99.90
14475;DHT22;7323;50.848;4.334;2023-03-01T09:14:29;2.70;99.90
14475;DHT22;7323;50.848;4.334;2023-03-01T09:16:58;2.70;99.90
14475;DHT22;7323;50.848;4.334;2023-03-01T09:19:23;2.70;99.90
14475;DHT22;7323;50.848;4.334;2023-03-01T09:21:53;2.70;99.90
14475;DHT22;7323;50.848;4.334;2023-03-01T09:24:23;2.80;99.90
14475;DHT22;7323;50.848;4.334;2023-03-01T09:26:53;2.90;99.90
14475;DHT22;7323;50.848;4.334;2023-03-01T09:29:25;2.90;99.90
14475;DHT22;7323;50.848;4.334;2023-03-01T09:31:53;3.00;99.90
14475;DHT22;7323;50.848;4.334;2023-03-01T09:34:23;3.20;90.00
14475;DHT22;7323;50.848;4.334;2023-03-01T09:36:52;3.30;1.00
14475;DHT22;7323;50.848;4.334;2023-03-01T09:39:20;3.30;1.00
14475;DHT22;7323;50.848;4.334;2023-03-01T09:44:27;3.20;99.90
14475;DHT22;7323;50.848;4.334;2023-03-01T09:46:56;3.20;99.90
14475;DHT22;7323;50.848;4.334;2023-03-01T09:49:30;3.40;99.90
14475;DHT22;7323;50.848;4.334;2023-03-01T09:54:55;3.50;1.00
14475;DHT22;7323;50.848;4.334;2023-03-01T10:00:46;3.70;99.90
14475;DHT22;7323;50.848;4.334;2023-03-01T10:03:34;3.70;99.90
14475;DHT22;7323;50.848;4.334;2023-03-01T10:06:19;3.80;99.90
14475;DHT22;7323;50.848;4.334;2023-03-01T10:09:16;3.90;1.00
14475;DHT22;7323;50.848;4.334;2023-03-01T10:11:51;3.80;1.00
14475;DHT22;7323;50.848;4.334;2023-03-01T10:19:47;3.70;42.20
14475;DHT22;7323;50.848;4.334;2023-03-01T10:22:26;3.70;1.00
14475;DHT22;7323;50.848;4.334;2023-03-01T10:24:55;3.90;1.00
14475;DHT22;7323;50.848;4.334;2023-03-01T10:27:24;3.90;1.00
14475;DHT22;7323;50.848;4.334;2023-03-01T10:30:10;4.00;1.00
14475;DHT22;7323;50.848;4.334;2023-03-01T10:32:41;4.10;1.00
14475;DHT22;7323;50.848;4.334;2023-03-01T10:35:25;4.10;99.90
14475;DHT22;7323;50.848;4.334;2023-03-01T10:38:10;4.10;1.00
14475;DHT22;7323;50.848;4.334;2023-03-01T10:43:17;4.30;1.00
14475;DHT22;7323;50.848;4.334;2023-03-01T10:45:43;4.30;99.90
14475;DHT22;7323;50.848;4.334;2023-03-01T10:50:47;4.60;1.00
14475;DHT22;7323;50.848;4.334;2023-03-01T10:53:27;4.60;16.90
14475;DHT22;7323;50.848;4.334;2023-03-01T10:56:03;4.70;99.90
14475;DHT22;7323;50.848;4.334;2023-03-01T10:58:35;4.70;1.00
14475;DHT22;7323;50.848;4.334;2023-03-01T11:03:43;4.80;1.00
14475;DHT22;7323;50.848;4.334;2023-03-01T11:08:48;5.00;1.00
14475;DHT22;7323;50.848;4.334;2023-03-01T11:11:38;5.10;1.00
14475;DHT22;7323;50.848;4.334;2023-03-01T11:14:21;5.20;99.90
14475;DHT22;7323;50.848;4.334;2023-03-01T11:16:49;5.00;33.10
14475;DHT22;7323;50.848;4.334;2023-03-01T11:19:23;5.00;99.90
14475;DHT22;7323;50.848;4.334;2023-03-01T11:22:17;5.00;99.90
14475;DHT22;7323;50.848;4.334;2023-03-01T11:24:50;5.20;99.90
14475;DHT22;7323;50.848;4.334;2023-03-01T11:27:21;5.40;1.00
14475;DHT22;7323;50.848;4.334;2023-03-01T11:30:05;5.60;1.00
14475;DHT22;7323;50.848;4.334;2023-03-01T11:35:45;5.40;99.90
14475;DHT22;7323;50.848;4.334;2023-03-01T11:38:22;5.40;1.00
14475;DHT22;7323;50.848;4.334;2023-03-01T11:41:08;5.30;1.00
14475;DHT22;7323;50.848;4.334;2023-03-01T11:44:03;5.40;1.00
14475;DHT22;7323;50.848;4.334;2023-03-01T12:03:52;5.80;99.90
14475;DHT22;7323;50.848;4.334;2023-03-01T12:26:43;6.20;1.00
14475;DHT22;7323;50.848;4.334;2023-03-01T12:29:34;6.20;1.00
14475;DHT22;7323;50.848;4.334;2023-03-01T12:32:18;6.30;99.90
14475;DHT22;7323;50.848;4.334;2023-03-01T12:37:44;6.20;99.90
14475;DHT22;7323;50.848;4.334;2023-03-01T12:40:43;6.20;99.90
14475;DHT22;7323;50.848;4.334;2023-03-01T12:51:35;6.40;77.40
14475;DHT22;7323;50.848;4.334;2023-03-01T12:54:15;6.40;42.70
14475;DHT22;7323;50.848;4.334;2023-03-01T12:56:41;6.40;1.00
14475;DHT22;7323;50.848;4.334;2023-03-01T13:02:18;6.60;14.10
14475;DHT22;7323;50.848;4.334;2023-03-01T13:08:04;6.70;1.00
14475;DHT22;7323;50.848;4.334;2023-03-01T13:10:39;6.70;1.00
14475;DHT22;7323;50.848;4.334;2023-03-01T13:13:19;6.60;1.00
14475;DHT22;7323;50.848;4.334;2023-03-01T13:15:46;6.70;1.00
14475;DHT22;7323;50.848;4.334;2023-03-01T13:23:33;6.80;1.00
14475;DHT22;7323;50.848;4.334;2023-03-01T13:28:53;6.80;1.00
14475;DHT22;7323;50.848;4.334;2023-03-01T13:34:03;6.90;1.00
14475;DHT22;7323;50.848;4.334;2023-03-01T13:39:27;7.20;99.90
14475;DHT22;7323;50.848;4.334;2023-03-01T13:41:55;7.00;99.90
14475;DHT22;7323;50.848;4.334;2023-03-01T13:44:39;7.00;1.00
14475;DHT22;7323;50.848;4.334;2023-03-01T13:49:46;7.10;1.00
14475;DHT22;7323;50.848;4.334;2023-03-01T13:52:40;7.10;1.00
14475;DHT22;7323;50.848;4.334;2023-03-01T13:55:38;7.10;99.90
14475;DHT22;7323;50.848;4.334;2023-03-01T13:58:30;7.20;99.90
14475;DHT22;7323;50.848;4.334;2023-03-01T14:01:06;7.20;99.90
14475;DHT22;7323;50.848;4.334;2023-03-01T14:03:39;7.10;99.90
14475;DHT22;7323;50.848;4.334;2023-03-01T14:06:08;7.20;99.90
14475;DHT22;7323;50.848;4.334;2023-03-01T14:08:37;7.30;99.90
14475;DHT22;7323;50.848;4.334;2023-03-01T14:17:27;7.30;99.90
14475;DHT22;7323;50.848;4.334;2023-03-01T14:20:25;7.30;99.90
14475;DHT22;7323;50.848;4.334;2023-03-01T14:23:02;7.30;99.90
14475;DHT22;7323;50.848;4.334;2023-03-01T14:28:52;7.20;99.90
14475;DHT22;7323;50.848;4.334;2023-03-01T14:31:38;7.20;99.90
14475;DHT22;7323;50.848;4.334;2023-03-01T14:34:22;7.30;99.90
14475;DHT22;7323;50.848;4.334;2023-03-01T14:36:49;7.30;99.90
14475;DHT22;7323;50.848;4.334;2023-03-01T14:39:25;7.30;99.90
14475;DHT22;7323;50.848;4.334;2023-03-01T14:41:54;7.40;99.90
14475;DHT22;7323;50.848;4.334;2023-03-01T14:44:23;7.60;99.90
14475;DHT22;7323;50.848;4.334;2023-03-01T14:46:56;7.40;99.90
14475;DHT22;7323;50.848;4.334;2023-03-01T14:49:30;7.50;99.90
14475;DHT22;7323;50.848;4.334;2023-03-01T14:52:06;7.50;99.90
14475;DHT22;7323;50.848;4.334;2023-03-01T14:54:40;7.50;99.90
14475;DHT22;7323;50.848;4.334;2023-03-01T14:57:18;7.50;99.90
14475;DHT22;7323;50.848;4.334;2023-03-01T14:59:44;7.50;99.90
14475;DHT22;7323;50.848;4.334;2023-03-01T15:02:17;7.60;99.90
14475;DHT22;7323;50.848;4.334;2023-03-01T15:04:50;7.50;99.90
14475;DHT22;7323;50.848;4.334;2023-03-01T15:07:17;7.70;99.90
14475;DHT22;7323;50.848;4.334;2023-03-01T15:09:43;8.20;99.90
14475;DHT22;7323;50.848;4.334;2023-03-01T15:14:59;9.30;95.60
14475;DHT22;7323;50.848;4.334;2023-03-01T15:17:37;9.70;31.50
14475;DHT22;7323;50.848;4.334;2023-03-01T15:20:15;9.80;1.00
14475;DHT22;7323;50.848;4.334;2023-03-01T15:22:46;9.80;1.00
14475;DHT22;7323;50.848;4.334;2023-03-01T15:25:18;10.10;1.00
14475;DHT22;7323;50.848;4.334;2023-03-01T15:27:50;10.10;1.00
14475;DHT22;7323;50.848;4.334;2023-03-01T15:30:23;10.40;1.00
14475;DHT22;7323;50.848;4.334;2023-03-01T15:33:43;10.20;1.00
14475;DHT22;7323;50.848;4.334;2023-03-01T15:36:49;10.20;1.00
14475;DHT22;7323;50.848;4.334;2023-03-01T15:38:53;10.30;1.00
14475;DHT22;7323;50.848;4.334;2023-03-01T15:43:57;9.90;1.00
14475;DHT22;7323;50.848;4.334;2023-03-01T15:46:36;9.90;1.00
14475;DHT22;7323;50.848;4.334;2023-03-01T15:49:05;10.00;1.00
14475;DHT22;7323;50.848;4.334;2023-03-01T15:51:47;9.90;1.00
14475;DHT22;7323;50.848;4.334;2023-03-01T15:54:22;10.20;1.00
14475;DHT22;7323;50.848;4.334;2023-03-01T15:56:55;10.40;1.00
14475;DHT22;7323;50.848;4.334;2023-03-01T15:59:30;10.60;1.00
14475;DHT22;7323;50.848;4.334;2023-03-01T16:05:17;10.20;1.00
14475;DHT22;7323;50.848;4.334;2023-03-01T16:07:46;9.80;1.00
14475;DHT22;7323;50.848;4.334;2023-03-01T16:10:16;9.70;1.00
14475;DHT22;7323;50.848;4.334;2023-03-01T16:12:50;10.10;1.00
14475;DHT22;7323;50.848;4.334;2023-03-01T16:15:26;10.00;1.00
14475;DHT22;7323;50.848;4.334;2023-03-01T16:17:54;10.30;1.00
14475;DHT22;7323;50.848;4.334;2023-03-01T16:20:27;10.40;1.00
14475;DHT22;7323;50.848;4.334;2023-03-01T16:22:54;10.00;1.00
14475;DHT22;7323;50.848;4.334;2023-03-01T16:25:22;10.00;1.00
14475;DHT22;7323;50.848;4.334;2023-03-01T16:27:51;10.30;1.00
14475;DHT22;7323;50.848;4.334;2023-03-01T16:33:18;9.70;1.00
14475;DHT22;7323;50.848;4.334;2023-03-01T16:35:44;9.40;1.00
14475;DHT22;7323;50.848;4.334;2023-03-01T16:38:17;9.40;1.00
14475;DHT22;7323;50.848;4.334;2023-03-01T16:40:48;9.20;1.00
14475;DHT22;7323;50.848;4.334;2023-03-01T16:43:16;9.20;1.00
14475;DHT22;7323;50.848;4.334;2023-03-01T16:45:45;9.20;1.00
14475;DHT22;7323;50.848;4.334;2023-03-01T16:48:14;8.90;3.30
14475;DHT22;7323;50.848;4.334;2023-03-01T16:50:40;8.90;36.20
14475;DHT22;7323;50.848;4.334;2023-03-01T16:53:09;9.00;52.20
14475;DHT22;7323;50.848;4.334;2023-03-01T16:55:36;8.80;62.60
14475;DHT22;7323;50.848;4.334;2023-03-01T16:58:03;8.60;99.90
14475;DHT22;7323;50.848;4.334;2023-03-01T17:00:31;8.40;99.90
14475;DHT22;7323;50.848;4.334;2023-03-01T17:02:57;8.30;99.90
14475;DHT22;7323;50.848;4.334;2023-03-01T17:05:23;8.20;99.90
14475;DHT22;7323;50.848;4.334;2023-03-01T17:07:50;8.10;99.90
14475;DHT22;7323;50.848;4.334;2023-03-01T17:10:21;8.00;99.90
14475;DHT22;7323;50.848;4.334;2023-03-01T17:12:48;8.00;99.90
14475;DHT22;7323;50.848;4.334;2023-03-01T17:15:21;7.80;99.90
14475;DHT22;7323;50.848;4.334;2023-03-01T17:17:49;7.50;1.00
14475;DHT22;7323;50.848;4.334;2023-03-01T17:20:17;7.40;1.00
14475;DHT22;7323;50.848;4.334;2023-03-01T17:22:53;7.10;1.00
14475;DHT22;7323;50.848;4.334;2023-03-01T17:25:20;7.00;1.00
14475;DHT22;7323;50.848;4.334;2023-03-01T17:27:45;7.10;1.00
14475;DHT22;7323;50.848;4.334;2023-03-01T17:30:13;7.00;50.60
14475;DHT22;7323;50.848;4.334;2023-03-01T17:32:44;6.90;99.90
14475;DHT22;7323;50.848;4.334;2023-03-01T17:35:10;6.80;99.90
14475;DHT22;7323;50.848;4.334;2023-03-01T17:37:37;6.80;99.90
14475;DHT22;7323;50.848;4.334;2023-03-01T17:40:06;6.70;99.90
14475;DHT22;7323;50.848;4.334;2023-03-01T17:42:32;6.60;99.90
14475;DHT22;7323;50.848;4.334;2023-03-01T17:44:59;6.60;99.90
14475;DHT22;7323;50.848;4.334;2023-03-01T17:47:28;6.60;99.90
14475;DHT22;7323;50.848;4.334;2023-03-01T17:49:55;6.60;99.90
14475;DHT22;7323;50.848;4.334;2023-03-01T17:52:21;6.50;99.90
14475;DHT22;7323;50.848;4.334;2023-03-01T17:54:49;6.50;99.90
14475;DHT22;7323;50.848;4.334;2023-03-01T17:57:15;6.50;99.90
14475;DHT22;7323;50.848;4.334;2023-03-01T17:59:40;6.50;1.00
14475;DHT22;7323;50.848;4.334;2023-03-01T18:02:06;6.40;1.00
14475;DHT22;7323;50.848;4.334;2023-03-01T18:04:35;6.50;1.00
14475;DHT22;7323;50.848;4.334;2023-03-01T18:07:04;6.50;1.00
14475;DHT22;7323;50.848;4.334;2023-03-01T18:09:47;6.40;1.00
14475;DHT22;7323;50.848;4.334;2023-03-01T18:12:16;6.40;1.00
14475;DHT22;7323;50.848;4.334;2023-03-01T18:14:44;6.60;1.00
14475;DHT22;7323;50.848;4.334;2023-03-01T18:17:10;6.40;1.00
14475;DHT22;7323;50.848;4.334;2023-03-01T18:19:38;6.40;1.00
14475;DHT22;7323;50.848;4.334;2023-03-01T18:22:06;6.30;1.00
14475;DHT22;7323;50.848;4.334;2023-03-01T18:24:33;6.50;1.00
14475;DHT22;7323;50.848;4.334;2023-03-01T18:27:01;6.30;1.00
14475;DHT22;7323;50.848;4.334;2023-03-01T18:29:26;6.30;1.00
14475;DHT22;7323;50.848;4.334;2023-03-01T18:31:53;6.20;1.00
14475;DHT22;7323;50.848;4.334;2023-03-01T18:34:24;6.40;1.00
14475;DHT22;7323;50.848;4.334;2023-03-01T18:36:53;6.20;1.00
14475;DHT22;7323;50.848;4.334;2023-03-01T18:39:30;6.10;1.00
14475;DHT22;7323;50.848;4.334;2023-03-01T18:41:56;6.10;1.00
14475;DHT22;7323;50.848;4.334;2023-03-01T18:44:22;6.10;42.30
14475;DHT22;7323;50.848;4.334;2023-03-01T18:46:48;6.00;99.90
14475;DHT22;7323;50.848;4.334;2023-03-01T18:49:15;6.00;99.90
14475;DHT22;7323;50.848;4.334;2023-03-01T18:51:56;5.90;99.90